Time;durP1;ratioP1;P1;durP2;ratioP2;P2;SDS_P1;SDS_P2;PMS_P1;PMS_P2;Temp;Humidity;BMP_temperature;BMP_pressure;BME280_temperature;BME280_humidity;BME280_pressure;Samples;Min_cycle;Max_cycle;Signal;HPM_P1;HPM_P2
2021/05/17 00:00:36;;;;;;;0.80;0.60;;;18.70;93.90;;;18.69;48.00;99712.97;4893407;28;97604;-49
2021/05/17 00:03:03;;;;;;;1.00;0.67;;;18.70;93.70;;;18.76;47.54;99712.44;4897963;28;100510;-51
2021/05/17 00:05:30;;;;;;;0.60;0.60;;;18.80;93.50;;;18.80;47.71;99713.84;4895285;28;99321;-57
2021/05/17 00:07:57;;;;;;;0.77;0.73;;;18.80;93.30;;;18.84;47.50;99721.50;4896768;28;97507;-54
2021/05/17 00:10:24;;;;;;;1.07;0.80;;;18.90;93.30;;;18.86;47.32;99719.56;4895978;28;98619;-54
2021/05/17 00:12:51;;;;;;;1.53;0.87;;;18.90;93.20;;;18.90;47.50;99712.13;4899423;28;97641;-54
2021/05/17 00:15:20;;;;;;;1.23;0.80;;;19.00;93.20;;;18.94;47.18;99710.88;4892979;28;97155;-54
2021/05/17 00:17:47;;;;;;;0.80;0.70;;;19.00;93.10;;;18.95;47.25;99712.56;4913321;28;97044;-54
2021/05/17 00:20:16;;;;;;;1.13;0.73;;;19.00;93.00;;;18.96;47.31;99714.28;4915262;28;98767;-52
2021/05/17 00:22:42;;;;;;;1.10;0.90;;;19.00;93.00;;;18.97;47.28;99713.31;4892516;28;104369;-50
2021/05/17 00:25:09;;;;;;;1.17;0.70;;;19.00;93.00;;;18.96;47.27;99719.63;4911965;28;96850;-56
2021/05/17 00:27:35;;;;;;;1.23;0.93;;;19.00;93.00;;;18.91;47.13;99728.00;4907788;28;98498;-58
2021/05/17 00:30:03;;;;;;;0.70;0.60;;;19.00;92.80;;;18.84;47.54;99721.50;4913604;28;97759;-55
2021/05/17 00:32:28;;;;;;;1.80;0.83;;;18.80;93.20;;;18.82;47.50;99727.97;4899948;28;99642;-51
2021/05/17 00:34:56;;;;;;;1.13;0.77;;;18.80;93.30;;;18.75;47.30;99726.78;4912282;28;96805;-55
2021/05/17 00:37:22;;;;;;;2.13;1.20;;;18.70;92.80;;;18.71;47.64;99721.69;4897099;28;97442;-54
2021/05/17 00:39:48;;;;;;;0.77;0.77;;;18.70;93.00;;;18.61;47.83;99715.38;4891873;28;97734;-48
2021/05/17 00:42:15;;;;;;;1.00;0.67;;;18.40;94.10;;;18.57;48.16;99719.31;4897456;28;98388;-57
2021/05/17 00:44:42;;;;;;;0.83;0.83;;;18.40;94.20;;;18.58;48.06;99721.00;4897296;28;98262;-58
2021/05/17 00:47:14;;;;;;;1.13;0.87;;;18.40;93.70;;;18.63;47.98;99718.81;4905775;28;96930;-55
2021/05/17 00:49:42;;;;;;;0.70;0.70;;;18.50;93.80;;;18.59;48.02;99719.16;4894096;28;101669;-55
2021/05/17 00:52:10;;;;;;;1.47;0.90;;;18.50;94.00;;;18.60;47.89;99724.38;4899130;28;97434;-56
2021/05/17 00:54:36;;;;;;;1.60;1.00;;;18.50;93.40;;;18.66;47.92;99733.72;4889596;28;97378;-51
2021/05/17 00:57:03;;;;;;;1.20;0.80;;;18.60;93.50;;;18.65;47.78;99732.88;4902839;28;98160;-53
2021/05/17 00:59:31;;;;;;;1.83;0.87;;;18.60;92.90;;;18.59;47.99;99733.38;4909497;28;98565;-52
2021/05/17 01:01:57;;;;;;;1.03;0.90;;;18.50;93.20;;;18.51;48.24;99741.16;4904192;28;97850;-48
2021/05/17 01:04:23;;;;;;;0.90;0.80;;;18.30;94.00;;;18.46;48.39;99734.50;4889937;28;97942;-48
2021/05/17 01:06:53;;;;;;;0.67;0.53;;;18.20;94.60;;;18.48;48.42;99736.06;4886333;28;107005;-47
2021/05/17 01:09:19;;;;;;;0.87;0.60;;;18.30;94.50;;;18.48;48.32;99736.06;4906551;28;98144;-56
2021/05/17 01:11:45;;;;;;;1.30;1.00;;;18.30;94.10;;;18.48;48.29;99736.06;4898258;28;98187;-49
2021/05/17 01:14:13;;;;;;;0.70;0.67;;;18.40;93.60;;;18.42;48.75;99731.25;4897134;28;97848;-55
2021/05/17 01:16:39;;;;;;;1.50;1.10;;;18.20;94.80;;;18.33;48.75;99727.50;4892181;28;98820;-54
2021/05/17 01:19:10;;;;;;;1.10;0.80;;;18.00;94.70;;;18.28;48.99;99723.53;4897956;28;98422;-57
2021/05/17 01:21:40;;;;;;;1.47;1.10;;;17.90;95.60;;;18.19;49.23;99734.94;4892961;28;98095;-51
2021/05/17 01:24:07;;;;;;;1.87;1.47;;;17.70;95.90;;;18.10;49.30;99732.06;4911371;28;97224;-52
2021/05/17 01:26:36;;;;;;;1.13;1.00;;;17.60;96.10;;;18.02;49.42;99734.50;4889469;28;97637;-52
2021/05/17 01:29:08;;;;;;;1.27;0.73;;;17.50;96.60;;;18.01;49.53;99738.16;4897593;28;99370;-52
2021/05/17 01:31:35;;;;;;;1.10;0.70;;;17.50;96.70;;;18.01;49.85;99743.47;4892669;28;99026;-56
2021/05/17 01:34:02;;;;;;;0.90;0.70;;;17.60;96.30;;;18.04;49.49;99727.22;4896703;28;97647;-54
2021/05/17 01:36:28;;;;;;;1.03;0.80;;;17.70;95.90;;;18.17;49.25;99731.56;4890343;28;97332;-51
2021/05/17 01:38:56;;;;;;;0.53;0.50;;;17.90;95.30;;;18.19;49.05;99730.47;4894939;28;99184;-53
2021/05/17 01:41:24;;;;;;;0.60;0.60;;;18.10;94.90;;;18.21;49.18;99730.34;4886539;28;99267;-53
2021/05/17 01:43:55;;;;;;;1.60;0.97;;;18.00;95.30;;;18.19;49.17;99734.94;4896542;28;99409;-53
2021/05/17 01:46:28;;;;;;;0.80;0.73;;;18.00;95.60;;;18.18;49.13;99734.09;4887176;28;97350;-48
2021/05/17 01:48:59;;;;;;;1.03;0.60;;;17.90;95.70;;;18.16;49.43;99743.22;4895550;28;101888;-54
2021/05/17 01:51:26;;;;;;;0.67;0.63;;;17.90;95.70;;;18.18;49.08;99738.59;4893110;28;100622;-55
2021/05/17 01:53:53;;;;;;;0.80;0.77;;;18.00;95.50;;;18.22;48.97;99737.38;4912938;28;97410;-52
2021/05/17 01:56:20;;;;;;;1.67;0.70;;;18.10;95.10;;;18.26;48.98;99733.50;4906327;28;97086;-51
2021/05/17 01:58:46;;;;;;;0.77;0.43;;;18.10;94.90;;;18.33;48.58;99743.53;4894556;28;97226;-46
2021/05/17 02:01:17;;;;;;;0.70;0.63;;;18.20;94.70;;;18.42;48.67;99736.59;4893081;28;99156;-49
2021/05/17 02:03:48;;;;;;;0.80;0.60;;;18.30;94.50;;;18.53;48.13;99741.91;4907822;28;97527;-51
2021/05/17 02:06:16;;;;;;;0.80;0.50;;;18.50;94.20;;;18.61;48.05;99739.41;4892278;28;98936;-59
2021/05/17 02:08:50;;;;;;;0.80;0.60;;;18.60;94.00;;;18.69;48.08;99739.69;4897595;28;103717;-51
2021/05/17 02:11:20;;;;;;;1.07;0.80;;;18.70;93.80;;;18.74;47.93;99733.94;4893422;28;97413;-52
2021/05/17 02:13:46;;;;;;;0.50;0.50;;;18.80;93.70;;;18.78;47.67;99738.03;4910639;28;97493;-49
2021/05/17 02:16:13;;;;;;;1.03;0.90;;;18.80;93.60;;;18.81;47.31;99737.81;4900424;28;97287;-55
2021/05/17 02:18:51;;;;;;;0.70;0.70;;;18.80;92.70;;;18.82;47.49;99730.63;4900681;28;104271;-51
2021/05/17 02:21:20;;;;;;;0.80;0.40;;;18.90;93.50;;;18.81;47.59;99734.28;4911792;28;99046;-59
2021/05/17 02:23:46;;;;;;;0.90;0.70;;;18.80;93.50;;;18.81;47.65;99740.47;4905591;28;97419;-50
2021/05/17 02:26:12;;;;;;;1.43;0.70;;;18.80;93.40;;;18.85;47.57;99733.03;4900949;28;97306;-57
2021/05/17 02:28:40;;;;;;;0.63;0.60;;;18.90;93.40;;;18.87;47.36;99741.78;4885749;28;100697;-48
2021/05/17 02:31:07;;;;;;;1.13;0.50;;;18.90;93.30;;;18.88;47.41;99738.97;4913389;28;97383;-50
2021/05/17 02:33:34;;;;;;;1.27;0.60;;;18.90;93.30;;;18.89;47.37;99748.66;4904072;28;97476;-56
2021/05/17 02:36:01;;;;;;;0.83;0.50;;;18.90;93.10;;;18.86;47.60;99745.41;4901390;28;97123;-51
2021/05/17 02:38:27;;;;;;;2.00;1.23;;;18.90;93.30;;;18.82;47.55;99750.19;4904015;28;97551;-51
2021/05/17 02:40:56;;;;;;;1.17;0.73;;;18.80;93.10;;;18.68;47.88;99740.66;4914742;28;97348;-51
2021/05/17 02:43:32;;;;;;;0.70;0.60;;;18.60;94.20;;;18.62;48.14;99743.78;4969856;27;97028;-49
2021/05/17 02:46:00;;;;;;;0.77;0.70;;;18.50;94.40;;;18.66;48.13;99739.06;4961250;28;97480;-46
2021/05/17 02:48:29;;;;;;;0.40;0.40;;;18.50;94.10;;;18.66;48.14;99737.28;4961580;28;97764;-49
2021/05/17 02:50:57;;;;;;;0.80;0.70;;;18.60;94.00;;;18.62;48.18;99743.78;4972470;28;97013;-51
2021/05/17 02:53:37;;;;;;;0.70;0.67;;;18.50;94.10;;;18.68;48.02;99732.63;4975254;28;97566;-53
2021/05/17 02:56:08;;;;;;;2.40;1.10;;;18.60;94.00;;;18.71;47.89;99736.88;4965387;28;96931;-52
2021/05/17 02:58:38;;;;;;;2.10;0.97;;;18.70;93.40;;;18.68;47.96;99737.97;4960429;28;97679;-57
2021/05/17 03:01:12;;;;;;;0.80;0.67;;;18.60;93.90;;;18.69;47.93;99742.34;5001833;27;99890;-55
2021/05/17 03:03:49;;;;;;;1.10;0.80;;;18.60;93.70;;;18.66;48.12;99739.94;4961054;28;97333;-48
2021/05/17 03:06:58;;;;;;;1.53;0.70;;;18.60;93.60;;;18.67;48.03;99741.63;4981908;27;97038;-54
2021/05/17 03:09:25;;;;;;;1.07;0.90;;;18.60;93.90;;;18.67;47.73;99741.63;4967817;28;100954;-54
2021/05/17 03:11:53;;;;;;;0.50;0.50;;;18.70;93.50;;;18.69;47.53;99745.03;4963180;28;97150;-48
2021/05/17 03:14:20;;;;;;;0.60;0.60;;;18.70;93.30;;;18.69;48.01;99749.50;4961512;28;97276;-47
2021/05/17 03:16:49;;;;;;;0.87;0.53;;;18.60;94.20;;;18.73;47.80;99757.13;4949728;28;97486;-52
2021/05/17 03:19:17;;;;;;;0.70;0.53;;;18.70;93.60;;;18.75;47.84;99750.81;4963820;28;97329;-49
2021/05/17 03:21:44;;;;;;;1.27;0.80;;;18.70;93.50;;;18.77;47.94;99751.53;4976764;28;96982;-49
2021/05/17 03:24:11;;;;;;;0.90;0.60;;;18.70;93.60;;;18.81;47.48;99750.31;4972137;28;97004;-52
2021/05/17 03:26:37;;;;;;;2.73;1.80;;;18.80;93.30;;;18.78;47.50;99753.22;4978039;27;97026;-46
2021/05/17 03:29:04;;;;;;;1.33;0.67;;;18.80;93.00;;;18.73;47.88;99748.28;4968546;28;100377;-55
2021/05/17 03:31:30;;;;;;;0.40;0.40;;;18.70;93.90;;;18.72;47.69;99742.09;4946067;28;97089;-46
2021/05/17 03:33:57;;;;;;;0.77;0.43;;;18.70;93.70;;;18.77;47.85;99752.38;4969862;28;98007;-53
2021/05/17 03:36:24;;;;;;;0.60;0.50;;;18.70;93.60;;;18.73;47.92;99746.44;4961656;28;96747;-49
2021/05/17 03:38:50;;;;;;;0.90;0.70;;;18.70;93.70;;;18.72;47.85;99754.59;4969307;28;97699;-53
2021/05/17 03:41:15;;;;;;;0.93;0.57;;;18.70;93.80;;;18.77;48.01;99754.19;4964954;28;103601;-53
2021/05/17 03:43:41;;;;;;;0.50;0.50;;;18.70;93.60;;;18.75;47.80;99753.47;4970636;28;97102;-55
2021/05/17 03:46:07;;;;;;;0.80;0.40;;;18.70;93.60;;;18.77;47.71;99751.53;4965558;27;97311;-47
2021/05/17 03:48:40;;;;;;;0.47;0.47;;;18.70;93.50;;;18.78;47.84;99753.22;4964346;28;97658;-55
2021/05/17 03:51:13;;;;;;;0.83;0.50;;;18.80;93.50;;;18.80;47.73;99748.59;4966783;28;97547;-48
2021/05/17 03:53:39;;;;;;;1.63;1.03;;;18.80;93.40;;;18.68;48.02;99759.34;4957844;28;97468;-50
2021/05/17 03:56:06;;;;;;;3.47;0.70;;;18.60;93.90;;;18.63;48.24;99766.00;4952398;28;97668;-48
2021/05/17 03:58:32;;;;;;;0.93;0.70;;;18.50;93.90;;;18.59;48.26;99760.06;4952640;28;99419;-53
2021/05/17 04:00:58;;;;;;;1.40;0.57;;;18.50;93.90;;;18.58;48.21;99757.53;4956085;28;98450;-47
2021/05/17 04:03:25;;;;;;;0.90;0.80;;;18.50;93.80;;;18.55;48.13;99758.63;4945539;28;99434;-51
2021/05/17 04:14:06;;;;;;;0.80;0.57;;;18.30;94.40;;;18.36;48.79;99769.13;4933175;28;98797;-51
2021/05/17 04:16:32;;;;;;;1.03;0.87;;;18.10;95.50;;;18.31;48.81;99768.66;4929813;28;97225;-48
2021/05/17 04:18:58;;;;;;;2.17;1.00;;;18.10;95.70;;;18.24;49.25;99764.81;4954068;28;115477;-47
2021/05/17 04:21:24;;;;;;;0.60;0.60;;;17.90;96.10;;;18.22;49.24;99772.06;4953917;28;97877;-51
2021/05/17 04:23:49;;;;;;;1.97;1.40;;;17.90;95.80;;;18.22;49.02;99766.72;4948628;28;103194;-53
2021/05/17 04:26:15;;;;;;;0.30;0.30;;;17.90;95.40;;;18.27;49.11;99772.56;4948634;28;97199;-55
2021/05/17 04:28:41;;;;;;;0.50;0.50;;;18.00;95.10;;;18.36;48.85;99766.44;4950644;28;103126;-48
2021/05/17 04:31:07;;;;;;;1.50;0.50;;;18.20;94.80;;;18.45;48.72;99765.69;4959273;28;110261;-48
2021/05/17 04:33:33;;;;;;;0.73;0.70;;;18.40;94.20;;;18.51;48.69;99773.19;4950701;28;97450;-55
2021/05/17 04:36:00;;;;;;;0.70;0.70;;;18.40;94.30;;;18.49;48.67;99779.63;4953537;28;97081;-51
2021/05/17 04:38:26;;;;;;;0.60;0.40;;;18.30;94.90;;;18.51;48.41;99778.53;4944825;28;99589;-55
2021/05/17 04:40:52;;;;;;;1.10;0.70;;;18.40;94.40;;;18.48;48.73;99784.13;4949661;28;97200;-55
2021/05/17 04:43:18;;;;;;;0.60;0.50;;;18.30;94.90;;;18.46;48.67;99779.91;4946248;28;97556;-51
2021/05/17 04:45:44;;;;;;;1.30;0.90;;;18.30;94.70;;;18.48;48.70;99792.16;4982833;28;96963;-51
2021/05/17 04:48:10;;;;;;;2.57;1.43;;;18.30;94.60;;;18.47;48.62;99794.94;4948199;28;99395;-50
2021/05/17 04:50:35;;;;;;;1.43;1.00;;;18.30;94.90;;;18.44;48.85;99785.38;4951802;28;99095;-52
2021/05/17 04:53:01;;;;;;;0.50;0.50;;;18.30;94.70;;;18.50;48.46;99792.88;4947393;28;96782;-54
2021/05/17 04:55:27;;;;;;;0.53;0.40;;;18.40;94.50;;;18.59;48.38;99792.13;4962851;28;97182;-48
2021/05/17 04:57:53;;;;;;;1.40;0.50;;;18.60;94.20;;;18.65;48.12;99788.13;4955782;28;97199;-58
2021/05/17 05:00:20;;;;;;;4.20;1.20;;;18.60;93.90;;;18.58;48.30;99793.09;4973791;28;99680;-53
2021/05/17 05:02:46;;;;;;;1.53;0.87;;;18.50;95.00;;;18.50;48.61;99792.88;4970613;28;99789;-52
2021/05/17 05:05:12;;;;;;;0.50;0.50;;;18.40;95.30;;;18.50;48.35;99794.69;4949738;28;96869;-51
2021/05/17 05:07:38;;;;;;;0.60;0.60;;;18.30;94.40;;;18.44;48.71;99793.38;4948576;28;99977;-54
2021/05/17 05:10:05;;;;;;;0.73;0.70;;;18.30;94.90;;;18.51;48.72;99793.72;4948493;28;102585;-48
2021/05/17 05:12:31;;;;;;;0.97;0.50;;;18.30;94.50;;;18.54;48.41;99793.47;4949054;28;97400;-46
2021/05/17 05:14:57;;;;;;;2.60;1.40;;;18.50;94.50;;;18.53;49.22;99799.81;4951021;28;97336;-51
2021/05/17 05:17:23;;;;;;;0.97;0.60;;;18.50;95.00;;;18.50;48.58;99795.53;4951625;28;100491;-54
2021/05/17 05:19:48;;;;;;;0.77;0.50;;;18.40;94.60;;;18.52;48.66;99795.44;4968382;28;98199;-51
2021/05/17 05:22:14;;;;;;;1.17;0.83;;;18.40;94.40;;;18.59;48.20;99800.13;4951227;28;97077;-53
2021/05/17 05:24:41;;;;;;;1.00;0.50;;;18.50;93.90;;;18.60;48.35;99809.84;4982262;28;97195;-51
2021/05/17 05:34:46;;;;;;;0.80;0.50;;;18.60;94.00;;;18.72;47.95;99797.34;4949531;28;97041;-50
2021/05/17 05:37:12;;;;;;;1.63;0.90;;;18.70;93.80;;;18.74;48.05;99806.06;4952958;28;98581;-46
2021/05/17 05:39:38;;;;;;;1.40;0.90;;;18.80;93.70;;;18.78;47.87;99801.31;4948301;28;98156;-50
2021/05/17 05:42:04;;;;;;;0.70;0.60;;;18.80;93.50;;;18.75;48.08;99801.56;4954962;28;101133;-55
2021/05/17 05:44:32;;;;;;;2.50;1.47;;;18.70;93.80;;;18.77;47.79;99810.28;4945210;28;96942;-55
2021/05/17 05:46:58;;;;;;;1.00;0.70;;;18.80;93.60;;;18.81;47.90;99801.06;4945395;28;97411;-50
2021/05/17 05:49:24;;;;;;;3.43;1.73;;;18.80;93.60;;;18.78;47.95;99801.31;4951220;28;98662;-47
2021/05/17 05:51:50;;;;;;;1.90;1.10;;;18.80;93.60;;;18.57;48.61;99799.41;4952985;28;97516;-53
2021/05/17 05:54:17;;;;;;;1.23;0.80;;;18.40;95.40;;;18.63;48.53;99804.25;4948117;28;97324;-53
2021/05/17 05:56:43;;;;;;;1.60;0.50;;;18.50;94.40;;;18.70;48.33;99802.81;4946494;28;99470;-49
2021/05/17 05:59:09;;;;;;;0.60;0.60;;;18.70;94.00;;;18.77;48.07;99805.78;4962713;28;97338;-47
2021/05/17 06:01:34;;;;;;;2.07;0.77;;;18.80;93.80;;;18.82;47.75;99808.13;4944893;28;97703;-49
2021/05/17 06:04:00;;;;;;;2.47;2.27;;;18.90;93.60;;;18.61;49.65;99810.69;4953201;28;97229;-54
2021/05/17 06:06:26;;;;;;;3.10;2.80;;;18.50;95.90;;;18.27;53.13;99817.94;4950806;28;97577;-47
2021/05/17 06:08:52;;;;;;;4.40;2.80;;;18.00;98.20;;;18.00;52.84;99821.00;4967352;28;99272;-52
2021/05/17 06:11:18;;;;;;;3.27;2.67;;;17.50;98.90;;;17.78;53.95;99821.81;4944467;28;98954;-51
2021/05/17 06:13:46;;;;;;;3.83;2.83;;;17.20;99.90;;;17.60;55.69;99812.56;4951708;28;97335;-55
2021/05/17 06:16:12;;;;;;;4.50;2.93;;;17.00;99.90;;;17.37;55.88;99817.88;4949996;28;98339;-56
2021/05/17 06:18:39;;;;;;;4.77;2.70;;;16.80;99.90;;;17.21;55.48;99820.00;4935154;28;98064;-53
2021/05/17 06:21:05;;;;;;;3.07;2.77;;;16.60;99.90;;;17.17;56.37;99815.88;4968281;28;96921;-58
2021/05/17 06:23:32;;;;;;;5.33;2.87;;;16.50;99.90;;;16.93;57.15;99824.78;4951401;28;98504;-48
2021/05/17 06:25:58;;;;;;;6.83;2.50;;;16.40;99.90;;;16.77;55.49;99815.34;4953805;28;97575;-47
2021/05/17 06:28:25;;;;;;;6.27;2.50;;;16.20;99.90;;;16.66;57.05;99816.16;4944153;28;98310;-47
2021/05/17 06:30:56;;;;;;;4.63;2.70;;;16.10;99.90;;;16.55;59.11;99822.25;4954666;28;96910;-51
2021/05/17 06:33:22;;;;;;;7.37;2.07;;;16.00;99.90;;;16.43;56.77;99820.47;4974413;28;96989;-50
2021/05/17 06:35:57;;;;;;;5.57;2.17;;;15.90;99.90;;;16.44;55.43;99837.28;4971406;28;99541;-49
2021/05/17 06:38:24;;;;;;;3.20;2.07;;;16.00;99.90;;;16.47;54.91;99821.09;4962014;28;100163;-55
2021/05/17 06:40:52;;;;;;;5.47;1.97;;;16.00;99.90;;;16.33;55.53;99820.28;4948079;28;96913;-54
2021/05/17 06:43:18;;;;;;;5.47;1.80;;;16.00;99.90;;;16.30;55.45;99825.84;4946565;28;97644;-56
2021/05/17 06:45:45;;;;;;;4.67;1.80;;;15.90;99.90;;;16.24;58.57;99826.28;4948133;28;98435;-54
2021/05/17 06:48:12;;;;;;;2.63;1.60;;;15.80;99.90;;;16.21;56.83;99825.66;4953434;28;99031;-48
2021/05/17 06:50:39;;;;;;;5.67;1.80;;;15.70;99.90;;;16.30;57.56;99830.31;4947342;28;97272;-53
2021/05/17 06:53:05;;;;;;;4.70;1.70;;;15.90;99.90;;;16.15;57.00;99832.25;4952096;28;97077;-48
2021/05/17 06:56:18;;;;;;;3.83;1.70;;;15.80;99.90;;;16.06;56.69;99832.94;4977878;28;97634;-55
2021/05/17 06:58:25;;;;;;;6.57;1.87;;;15.70;99.90;;;16.32;55.98;99839.03;4930482;28;97044;-55
2021/05/17 07:00:52;;;;;;;4.93;1.73;;;15.90;99.90;;;16.53;54.92;99841.97;4980103;28;97423;-55
2021/05/17 07:03:22;;;;;;;1.97;1.27;;;16.20;99.90;;;16.68;54.38;99838.22;4943712;28;97334;-55
2021/05/17 07:05:49;;;;;;;2.90;1.17;;;16.40;99.90;;;16.98;53.33;99842.22;4948967;28;97791;-55
2021/05/17 07:13:28;;;;;;;3.80;1.50;;;16.60;99.90;;;16.94;55.89;99853.09;4944159;28;96964;-53
2021/05/17 07:15:54;;;;;;;3.77;1.23;;;16.60;99.90;;;16.83;53.94;99845.06;4953761;28;103781;-47
2021/05/17 07:18:20;;;;;;;3.40;1.40;;;16.50;99.90;;;17.01;53.08;99847.31;4963838;28;98321;-50
2021/05/17 07:26:03;;;;;;;2.13;0.73;;;17.00;98.70;;;17.13;52.65;99849.91;4924227;28;101524;-57
2021/05/17 07:28:30;;;;;;;4.03;1.70;;;16.90;99.10;;;17.31;52.30;99849.47;4931356;28;96905;-49
2021/05/17 07:30:58;;;;;;;4.67;1.50;;;17.00;98.70;;;17.39;51.98;99842.59;4940018;28;97114;-46
2021/05/17 07:33:23;;;;;;;1.37;1.20;;;17.10;98.60;;;17.44;51.75;99845.75;4950578;28;97253;-48
2021/05/17 07:35:49;;;;;;;3.93;1.70;;;17.20;98.50;;;17.30;52.13;99859.28;4949414;28;110814;-49
2021/05/17 07:38:15;;;;;;;4.27;1.17;;;17.00;98.70;;;17.33;50.45;99845.72;4953330;28;104911;-53
2021/05/17 07:40:41;;;;;;;3.10;1.00;;;17.10;97.50;;;17.44;51.48;99845.75;4955312;28;97091;-53
2021/05/17 07:43:07;;;;;;;2.63;1.00;;;17.20;98.00;;;17.50;50.80;99845.28;4956971;28;97325;-52
2021/05/17 07:45:32;;;;;;;2.40;0.73;;;17.40;96.90;;;17.67;51.02;99851.13;4946323;28;97377;-52
2021/05/17 07:47:58;;;;;;;2.27;0.83;;;17.50;97.40;;;17.78;50.61;99852.00;4985773;28;97156;-53
2021/05/17 07:50:25;;;;;;;3.23;0.60;;;17.70;96.60;;;17.86;48.58;99851.41;4951090;28;97255;-49
2021/05/17 07:52:50;;;;;;;1.77;0.70;;;17.80;95.50;;;17.75;49.54;99859.41;4954464;28;97323;-50
2021/05/17 07:55:20;;;;;;;2.53;0.83;;;17.60;96.20;;;17.71;50.79;99853.47;4939401;28;99400;-49
2021/05/17 07:57:46;;;;;;;1.47;0.70;;;17.50;97.10;;;17.67;50.71;99857.31;4953799;28;97311;-51
2021/05/17 08:00:13;;;;;;;2.77;0.80;;;17.40;97.40;;;17.82;50.41;99855.31;4955496;28;97398;-50
2021/05/17 08:02:40;;;;;;;2.80;0.70;;;17.70;96.60;;;17.87;49.22;99850.44;4949277;28;97202;-50
2021/05/17 08:05:07;;;;;;;3.43;1.03;;;17.70;95.70;;;17.77;50.35;99854.78;4957750;28;97606;-52
2021/05/17 08:07:36;;;;;;;4.30;0.90;;;17.50;96.70;;;17.82;49.63;99849.97;4946712;28;97450;-53
2021/05/17 08:10:04;;;;;;;2.93;1.10;;;17.60;96.00;;;17.82;50.37;99844.63;4953153;28;97023;-51
2021/05/17 08:12:30;;;;;;;3.30;1.20;;;17.60;96.60;;;17.80;49.19;99862.59;4974987;28;101898;-48
2021/05/17 08:14:57;;;;;;;1.13;0.60;;;17.60;96.00;;;17.84;50.08;99848.03;4951403;28;97013;-50
2021/05/17 08:17:24;;;;;;;1.83;0.83;;;17.60;96.40;;;17.86;49.54;99853.25;4947758;28;99816;-57
2021/05/17 08:19:49;;;;;;;2.87;0.83;;;17.60;95.70;;;17.89;50.19;99851.19;4952696;28;96948;-51
2021/05/17 08:22:15;;;;;;;1.87;0.90;;;17.70;96.60;;;17.98;49.64;99849.63;4947507;28;99469;-56
2021/05/17 08:24:41;;;;;;;3.47;1.20;;;17.80;95.70;;;17.93;49.35;99851.78;4952874;28;97295;-51
2021/05/17 08:27:08;;;;;;;4.17;0.90;;;17.80;95.80;;;17.92;49.51;99845.59;4949848;28;97893;-51
2021/05/17 08:29:35;;;;;;;2.70;1.00;;;17.80;95.50;;;17.91;47.89;99851.91;4966274;28;97204;-54
2021/05/17 08:32:03;;;;;;;4.93;1.00;;;17.80;94.60;;;17.88;48.73;99849.47;4950132;28;96962;-46
2021/05/17 08:34:30;;;;;;;1.30;0.83;;;17.80;94.90;;;17.82;48.71;99848.16;4945805;28;97372;-52
2021/05/17 08:37:00;;;;;;;2.33;0.80;;;17.60;94.90;;;17.78;48.36;99848.50;4981121;28;99221;-48
2021/05/17 08:39:26;;;;;;;4.37;0.90;;;17.60;94.80;;;17.71;49.56;99863.28;4966349;28;97760;-56
2021/05/17 08:41:52;;;;;;;3.50;1.10;;;17.50;95.70;;;17.57;47.33;99860.81;4952779;28;97210;-57
2021/05/17 08:44:18;;;;;;;2.60;0.70;;;17.30;94.30;;;17.54;47.58;99862.75;4977648;28;97265;-46
2021/05/17 08:46:48;;;;;;;1.50;0.70;;;17.30;94.70;;;17.53;48.43;99861.06;4982443;28;98828;-60
2021/05/17 08:49:16;;;;;;;3.77;0.80;;;17.30;94.90;;;17.63;49.63;99860.31;4953563;28;97304;-54
2021/05/17 08:51:42;;;;;;;0.77;0.40;;;17.50;95.80;;;17.63;48.82;99860.31;4965965;28;97127;-47
2021/05/17 08:54:09;;;;;;;2.37;0.70;;;17.50;94.90;;;17.72;48.27;99867.66;4955620;28;100392;-54
2021/05/17 08:56:40;;;;;;;2.20;0.63;;;17.60;94.70;;;17.82;48.00;99865.97;4946401;28;98764;-57
2021/05/17 08:59:06;;;;;;;2.43;0.80;;;17.80;94.10;;;17.91;49.37;99864.38;4980856;28;97640;-51
2021/05/17 09:01:33;;;;;;;1.87;0.60;;;17.90;95.30;;;17.91;49.33;99865.25;4933622;28;97335;-50
2021/05/17 09:03:59;;;;;;;2.77;0.60;;;17.90;95.50;;;17.96;49.24;99868.41;4948950;28;97582;-47
2021/05/17 09:06:42;;;;;;;1.47;0.67;;;17.90;95.30;;;17.97;49.04;99870.13;4946225;28;97311;-52
2021/05/17 09:09:31;;;;;;;1.90;0.83;;;17.90;95.10;;;17.98;49.04;99869.13;4967174;28;97703;-54
2021/05/17 09:12:05;;;;;;;2.60;0.70;;;17.90;95.20;;;17.99;48.79;99868.16;4963722;28;97237;-53
2021/05/17 09:14:33;;;;;;;2.70;0.43;;;17.90;94.80;;;17.95;49.01;99866.72;4944796;28;98181;-48
2021/05/17 09:17:07;;;;;;;1.93;0.90;;;17.90;94.90;;;17.93;49.22;99876.63;4950447;28;98098;-54
2021/05/17 09:19:37;;;;;;;2.43;0.70;;;17.80;95.40;;;17.78;51.05;99878.69;4960020;28;97410;-51
2021/05/17 09:22:14;;;;;;;2.07;0.60;;;17.70;96.90;;;17.61;49.67;99872.94;4953333;28;97764;-54
2021/05/17 09:24:42;;;;;;;1.03;0.53;;;17.40;96.50;;;17.52;50.66;99875.34;4949333;28;104014;-47
2021/05/17 09:27:18;;;;;;;0.97;0.50;;;17.20;97.40;;;17.33;51.43;99868.84;4951855;28;99445;-50
2021/05/17 09:29:51;;;;;;;0.90;0.50;;;17.00;97.70;;;17.37;51.06;99876.53;4944622;28;100250;-52
2021/05/17 09:32:36;;;;;;;4.40;0.93;;;17.00;97.40;;;17.47;50.79;99866.84;4948170;28;99794;-55
2021/05/17 09:35:05;;;;;;;1.33;0.53;;;17.20;97.30;;;17.55;50.17;99864.44;4960934;28;98927;-51
2021/05/17 09:38:00;;;;;;;0.90;0.50;;;17.40;96.30;;;17.59;50.39;99869.53;4962544;28;97066;-48
2021/05/17 09:40:32;;;;;;;1.30;0.40;;;17.40;96.40;;;17.47;50.79;99872.16;4947840;28;97301;-54
2021/05/17 09:43:09;;;;;;;2.40;0.70;;;17.20;96.70;;;17.41;50.55;99872.66;4954829;28;97348;-49
2021/05/17 09:45:47;;;;;;;3.10;0.60;;;17.10;96.80;;;17.38;50.59;99872.88;4942364;28;97004;-46
2021/05/17 09:48:19;;;;;;;1.67;0.50;;;17.10;97.20;;;17.46;51.04;99854.47;4962167;28;99308;-52
2021/05/17 09:51:09;;;;;;;2.17;0.60;;;17.20;97.20;;;17.62;50.34;99859.47;4942000;28;98665;-56
2021/05/17 09:53:42;;;;;;;1.30;0.60;;;17.50;96.50;;;17.60;50.20;99857.91;4945416;28;100048;-53
2021/05/17 09:56:12;;;;;;;2.20;0.70;;;17.40;96.40;;;17.68;48.96;99852.84;4930542;28;97366;-48
2021/05/17 09:58:42;;;;;;;1.30;0.47;;;17.50;95.70;;;17.74;49.83;99852.38;4965027;28;97857;-55
2021/05/17 10:01:15;;;;;;;2.33;0.80;;;17.60;96.10;;;17.80;49.77;99855.44;4922039;28;96830;-53
2021/05/17 10:03:48;;;;;;;1.47;0.83;;;17.70;95.50;;;17.82;49.28;99850.81;4947625;28;96997;-52
2021/05/17 10:06:19;;;;;;;1.83;0.90;;;17.70;95.80;;;17.89;49.72;99851.19;4949807;28;99899;-54
2021/05/17 10:08:45;;;;;;;2.07;0.70;;;17.70;96.00;;;17.97;49.42;99842.59;4947409;28;101277;-50
2021/05/17 10:11:12;;;;;;;2.40;0.97;;;17.80;95.60;;;17.99;49.12;99833.47;4949532;28;97355;-46
2021/05/17 10:13:39;;;;;;;1.10;0.80;;;17.90;95.00;;;17.97;47.19;99843.44;4943227;28;97155;-50
2021/05/17 10:16:10;;;;;;;2.50;0.90;;;18.00;94.20;;;17.98;49.51;99839.78;4978429;28;99444;-52
2021/05/17 10:18:38;;;;;;;2.37;0.87;;;17.80;95.80;;;17.83;48.01;99831.19;4954940;28;97216;-51
2021/05/17 10:21:08;;;;;;;1.87;0.73;;;17.60;95.10;;;17.99;49.53;99841.47;4963656;28;97312;-54
2021/05/17 10:23:36;;;;;;;5.27;1.20;;;17.80;95.90;;;18.06;47.58;99832.00;4982539;28;97167;-53
2021/05/17 10:26:12;;;;;;;2.20;0.90;;;18.00;94.20;;;18.16;48.63;99847.28;4947150;28;98926;-54
2021/05/17 10:28:42;;;;;;;2.20;1.17;;;18.10;95.00;;;18.17;48.20;99838.31;4983643;28;99105;-54
2021/05/17 10:31:20;;;;;;;2.47;0.90;;;18.10;94.50;;;18.22;48.58;99836.13;4968705;28;96928;-50
2021/05/17 10:34:06;;;;;;;2.60;0.80;;;18.10;94.70;;;18.19;49.06;99836.38;4946142;28;97215;-52
2021/05/17 10:36:59;;;;;;;1.77;0.70;;;18.00;95.60;;;18.16;46.80;99828.63;4963098;28;100106;-48
2021/05/17 10:39:36;;;;;;;2.77;0.77;;;18.10;93.70;;;18.10;47.72;99824.63;4955571;28;100089;-51
2021/05/17 10:42:39;;;;;;;2.57;0.60;;;18.10;94.00;;;18.03;48.63;99845.59;4952554;28;97385;-54
2021/05/17 10:48:24;;;;;;;1.33;0.60;;;17.90;95.30;;;17.82;50.09;99853.50;4950437;28;101274;-50
2021/05/17 10:51:19;;;;;;;0.90;0.40;;;17.80;95.80;;;17.62;49.47;99875.47;4976970;28;104200;-52
2021/05/17 10:54:03;;;;;;;1.53;0.23;;;17.70;95.10;;;17.37;52.72;99873.84;4944855;28;97087;-50